sensor_id;sensor_type;location;lat;lon;timestamp;temperature;humidity
22698;DHT22;11516;51.612;7.510;2023-05-27T00:02:13;10.50;99.90
22698;DHT22;11516;51.612;7.510;2023-05-27T00:04:39;10.50;99.90
22698;DHT22;11516;51.612;7.510;2023-05-27T00:07:04;10.50;99.90
22698;DHT22;11516;51.612;7.510;2023-05-27T00:09:30;10.40;99.90
22698;DHT22;11516;51.612;7.510;2023-05-27T00:11:55;10.40;99.90
22698;DHT22;11516;51.612;7.510;2023-05-27T00:14:21;10.30;99.90
22698;DHT22;11516;51.612;7.510;2023-05-27T00:16:47;10.30;99.90
22698;DHT22;11516;51.612;7.510;2023-05-27T00:19:15;10.30;99.90
22698;DHT22;11516;51.612;7.510;2023-05-27T00:21:42;10.30;99.90
22698;DHT22;11516;51.612;7.510;2023-05-27T00:24:07;10.20;99.90
22698;DHT22;11516;51.612;7.510;2023-05-27T00:26:33;10.20;99.90
22698;DHT22;11516;51.612;7.510;2023-05-27T00:28:59;10.20;99.90
22698;DHT22;11516;51.612;7.510;2023-05-27T00:31:25;10.20;99.90
22698;DHT22;11516;51.612;7.510;2023-05-27T00:33:50;10.10;99.90
22698;DHT22;11516;51.612;7.510;2023-05-27T00:36:16;10.10;99.90
22698;DHT22;11516;51.612;7.510;2023-05-27T00:38:42;10.10;99.90
22698;DHT22;11516;51.612;7.510;2023-05-27T00:41:11;10.00;99.90
22698;DHT22;11516;51.612;7.510;2023-05-27T00:43:37;10.00;99.90
22698;DHT22;11516;51.612;7.510;2023-05-27T00:46:02;10.00;99.90
22698;DHT22;11516;51.612;7.510;2023-05-27T00:48:28;10.00;99.90
22698;DHT22;11516;51.612;7.510;2023-05-27T00:50:54;9.90;99.90
22698;DHT22;11516;51.612;7.510;2023-05-27T00:53:20;9.90;99.90
22698;DHT22;11516;51.612;7.510;2023-05-27T00:55:47;9.90;99.90
22698;DHT22;11516;51.612;7.510;2023-05-27T00:58:13;9.80;99.90
22698;DHT22;11516;51.612;7.510;2023-05-27T01:00:38;9.80;99.90
22698;DHT22;11516;51.612;7.510;2023-05-27T01:03:05;9.80;99.90
22698;DHT22;11516;51.612;7.510;2023-05-27T01:05:32;9.80;99.90
22698;DHT22;11516;51.612;7.510;2023-05-27T01:10:53;9.70;99.90
22698;DHT22;11516;51.612;7.510;2023-05-27T01:13:33;9.70;99.90
22698;DHT22;11516;51.612;7.510;2023-05-27T01:16:02;9.60;99.90
22698;DHT22;11516;51.612;7.510;2023-05-27T01:18:31;9.60;99.90
22698;DHT22;11516;51.612;7.510;2023-05-27T01:21:09;9.60;99.90
22698;DHT22;11516;51.612;7.510;2023-05-27T01:23:35;9.60;99.90
22698;DHT22;11516;51.612;7.510;2023-05-27T01:26:04;9.50;99.90
22698;DHT22;11516;51.612;7.510;2023-05-27T01:28:30;9.50;99.90
22698;DHT22;11516;51.612;7.510;2023-05-27T01:31:02;9.50;99.90
22698;DHT22;11516;51.612;7.510;2023-05-27T01:33:34;9.50;99.90
22698;DHT22;11516;51.612;7.510;2023-05-27T01:36:05;9.40;99.90
22698;DHT22;11516;51.612;7.510;2023-05-27T01:38:32;9.40;99.90
22698;DHT22;11516;51.612;7.510;2023-05-27T01:40:58;9.40;99.90
22698;DHT22;11516;51.612;7.510;2023-05-27T01:43:24;9.30;99.90
22698;DHT22;11516;51.612;7.510;2023-05-27T01:45:51;9.30;99.90
22698;DHT22;11516;51.612;7.510;2023-05-27T01:48:16;9.30;99.90
22698;DHT22;11516;51.612;7.510;2023-05-27T01:50:44;9.30;99.90
22698;DHT22;11516;51.612;7.510;2023-05-27T01:53:10;9.30;99.90
22698;DHT22;11516;51.612;7.510;2023-05-27T01:55:37;9.30;99.90
22698;DHT22;11516;51.612;7.510;2023-05-27T01:58:03;9.20;99.90
22698;DHT22;11516;51.612;7.510;2023-05-27T02:00:28;9.20;99.90
22698;DHT22;11516;51.612;7.510;2023-05-27T02:02:55;9.20;99.90
22698;DHT22;11516;51.612;7.510;2023-05-27T02:05:20;9.10;99.90
22698;DHT22;11516;51.612;7.510;2023-05-27T02:07:46;9.10;99.90
22698;DHT22;11516;51.612;7.510;2023-05-27T02:10:11;9.10;99.90
22698;DHT22;11516;51.612;7.510;2023-05-27T02:12:37;9.10;99.90
22698;DHT22;11516;51.612;7.510;2023-05-27T02:15:03;9.10;99.90
22698;DHT22;11516;51.612;7.510;2023-05-27T02:17:29;9.10;99.90
22698;DHT22;11516;51.612;7.510;2023-05-27T02:19:54;9.00;99.90
22698;DHT22;11516;51.612;7.510;2023-05-27T02:22:21;9.00;99.90
22698;DHT22;11516;51.612;7.510;2023-05-27T02:24:46;9.00;99.90
22698;DHT22;11516;51.612;7.510;2023-05-27T02:27:12;9.00;99.90
22698;DHT22;11516;51.612;7.510;2023-05-27T02:29:38;9.00;99.90
22698;DHT22;11516;51.612;7.510;2023-05-27T02:32:05;9.00;99.90
22698;DHT22;11516;51.612;7.510;2023-05-27T02:34:31;9.00;99.90
22698;DHT22;11516;51.612;7.510;2023-05-27T02:36:57;9.00;99.90
22698;DHT22;11516;51.612;7.510;2023-05-27T02:39:22;9.00;99.90
22698;DHT22;11516;51.612;7.510;2023-05-27T02:41:48;9.00;99.90
22698;DHT22;11516;51.612;7.510;2023-05-27T02:44:13;8.90;99.90
22698;DHT22;11516;51.612;7.510;2023-05-27T02:46:39;8.90;99.90
22698;DHT22;11516;51.612;7.510;2023-05-27T02:49:05;8.90;99.90
22698;DHT22;11516;51.612;7.510;2023-05-27T02:51:30;8.90;99.90
22698;DHT22;11516;51.612;7.510;2023-05-27T02:53:56;8.80;99.90
22698;DHT22;11516;51.612;7.510;2023-05-27T02:56:21;8.80;99.90
22698;DHT22;11516;51.612;7.510;2023-05-27T02:58:47;8.80;99.90
22698;DHT22;11516;51.612;7.510;2023-05-27T03:01:13;8.80;99.90
22698;DHT22;11516;51.612;7.510;2023-05-27T03:03:38;8.80;99.90
22698;DHT22;11516;51.612;7.510;2023-05-27T03:06:04;8.80;99.90
22698;DHT22;11516;51.612;7.510;2023-05-27T03:08:29;8.70;99.90
22698;DHT22;11516;51.612;7.510;2023-05-27T03:10:55;8.70;99.90
22698;DHT22;11516;51.612;7.510;2023-05-27T03:13:20;8.60;99.90
22698;DHT22;11516;51.612;7.510;2023-05-27T03:15:46;8.70;99.90
22698;DHT22;11516;51.612;7.510;2023-05-27T03:18:12;8.60;99.90
22698;DHT22;11516;51.612;7.510;2023-05-27T03:20:37;8.60;99.90
22698;DHT22;11516;51.612;7.510;2023-05-27T03:23:03;8.60;99.90
22698;DHT22;11516;51.612;7.510;2023-05-27T03:25:28;8.60;99.90
22698;DHT22;11516;51.612;7.510;2023-05-27T03:27:54;8.60;99.90
22698;DHT22;11516;51.612;7.510;2023-05-27T03:30:20;8.60;99.90
22698;DHT22;11516;51.612;7.510;2023-05-27T03:32:46;8.60;99.90
22698;DHT22;11516;51.612;7.510;2023-05-27T03:35:11;8.60;99.90
22698;DHT22;11516;51.612;7.510;2023-05-27T03:37:37;8.60;99.90
22698;DHT22;11516;51.612;7.510;2023-05-27T03:40:02;8.50;99.90
22698;DHT22;11516;51.612;7.510;2023-05-27T03:42:28;8.60;99.90
22698;DHT22;11516;51.612;7.510;2023-05-27T03:44:54;8.60;99.90
22698;DHT22;11516;51.612;7.510;2023-05-27T03:47:20;8.50;99.90
22698;DHT22;11516;51.612;7.510;2023-05-27T03:49:47;8.60;99.90
22698;DHT22;11516;51.612;7.510;2023-05-27T03:52:13;8.60;99.90
22698;DHT22;11516;51.612;7.510;2023-05-27T03:54:39;8.60;99.90
22698;DHT22;11516;51.612;7.510;2023-05-27T03:57:04;8.60;99.90
22698;DHT22;11516;51.612;7.510;2023-05-27T03:59:31;8.60;99.90
22698;DHT22;11516;51.612;7.510;2023-05-27T04:01:56;8.70;99.90
22698;DHT22;11516;51.612;7.510;2023-05-27T04:04:22;8.70;99.90
22698;DHT22;11516;51.612;7.510;2023-05-27T04:06:47;8.70;99.90
22698;DHT22;11516;51.612;7.510;2023-05-27T04:09:13;8.70;99.90
22698;DHT22;11516;51.612;7.510;2023-05-27T04:11:38;8.70;99.90
22698;DHT22;11516;51.612;7.510;2023-05-27T04:14:04;8.80;99.90
22698;DHT22;11516;51.612;7.510;2023-05-27T04:16:31;8.80;99.90
22698;DHT22;11516;51.612;7.510;2023-05-27T04:18:59;8.80;99.90
22698;DHT22;11516;51.612;7.510;2023-05-27T04:21:25;8.80;99.90
22698;DHT22;11516;51.612;7.510;2023-05-27T04:23:51;8.80;99.90
22698;DHT22;11516;51.612;7.510;2023-05-27T04:26:17;8.90;99.90
22698;DHT22;11516;51.612;7.510;2023-05-27T04:28:42;8.90;99.90
22698;DHT22;11516;51.612;7.510;2023-05-27T04:31:10;8.80;99.90
22698;DHT22;11516;51.612;7.510;2023-05-27T04:33:40;8.80;99.90
22698;DHT22;11516;51.612;7.510;2023-05-27T04:36:06;8.90;99.90
22698;DHT22;11516;51.612;7.510;2023-05-27T04:38:32;9.00;99.90
22698;DHT22;11516;51.612;7.510;2023-05-27T04:40:59;9.00;99.90
22698;DHT22;11516;51.612;7.510;2023-05-27T04:43:25;9.00;99.90
22698;DHT22;11516;51.612;7.510;2023-05-27T04:45:52;9.10;99.90
22698;DHT22;11516;51.612;7.510;2023-05-27T04:48:18;9.00;99.90
22698;DHT22;11516;51.612;7.510;2023-05-27T04:50:45;9.10;99.90
22698;DHT22;11516;51.612;7.510;2023-05-27T04:53:11;9.10;99.90
22698;DHT22;11516;51.612;7.510;2023-05-27T04:55:36;9.20;99.90
22698;DHT22;11516;51.612;7.510;2023-05-27T04:58:02;9.20;99.90
22698;DHT22;11516;51.612;7.510;2023-05-27T05:00:29;9.30;99.90
22698;DHT22;11516;51.612;7.510;2023-05-27T05:03:06;9.30;99.90
22698;DHT22;11516;51.612;7.510;2023-05-27T05:05:32;9.40;99.90
22698;DHT22;11516;51.612;7.510;2023-05-27T05:07:58;9.50;99.90
22698;DHT22;11516;51.612;7.510;2023-05-27T05:10:24;9.50;99.90
22698;DHT22;11516;51.612;7.510;2023-05-27T05:12:49;9.50;99.90
22698;DHT22;11516;51.612;7.510;2023-05-27T05:15:15;9.50;99.90
22698;DHT22;11516;51.612;7.510;2023-05-27T05:17:41;9.60;99.90
22698;DHT22;11516;51.612;7.510;2023-05-27T05:20:07;9.70;99.90
22698;DHT22;11516;51.612;7.510;2023-05-27T05:22:34;9.80;99.90
22698;DHT22;11516;51.612;7.510;2023-05-27T05:25:00;9.90;99.90
22698;DHT22;11516;51.612;7.510;2023-05-27T05:27:26;9.90;99.90
22698;DHT22;11516;51.612;7.510;2023-05-27T05:29:52;9.90;99.90
22698;DHT22;11516;51.612;7.510;2023-05-27T05:32:17;10.00;99.90
22698;DHT22;11516;51.612;7.510;2023-05-27T05:34:43;10.00;99.90
22698;DHT22;11516;51.612;7.510;2023-05-27T05:37:08;10.00;99.90
22698;DHT22;11516;51.612;7.510;2023-05-27T05:39:36;10.10;99.90
22698;DHT22;11516;51.612;7.510;2023-05-27T05:42:02;10.20;99.90
22698;DHT22;11516;51.612;7.510;2023-05-27T05:44:28;10.30;99.90
22698;DHT22;11516;51.612;7.510;2023-05-27T05:46:53;10.40;99.90
22698;DHT22;11516;51.612;7.510;2023-05-27T05:49:19;10.50;99.90
22698;DHT22;11516;51.612;7.510;2023-05-27T05:51:45;10.50;99.90
22698;DHT22;11516;51.612;7.510;2023-05-27T05:54:10;10.60;99.90
22698;DHT22;11516;51.612;7.510;2023-05-27T05:56:36;10.70;99.90
22698;DHT22;11516;51.612;7.510;2023-05-27T05:59:02;10.70;99.90
22698;DHT22;11516;51.612;7.510;2023-05-27T06:01:27;10.70;99.90
22698;DHT22;11516;51.612;7.510;2023-05-27T06:03:53;10.70;99.90
22698;DHT22;11516;51.612;7.510;2023-05-27T06:06:19;10.70;99.90
22698;DHT22;11516;51.612;7.510;2023-05-27T06:08:45;10.80;99.90
22698;DHT22;11516;51.612;7.510;2023-05-27T06:11:11;10.80;99.90
22698;DHT22;11516;51.612;7.510;2023-05-27T06:13:36;10.90;99.90
22698;DHT22;11516;51.612;7.510;2023-05-27T06:16:02;11.00;99.90
22698;DHT22;11516;51.612;7.510;2023-05-27T06:18:27;11.10;99.90
22698;DHT22;11516;51.612;7.510;2023-05-27T06:20:53;11.20;99.90
22698;DHT22;11516;51.612;7.510;2023-05-27T06:23:18;11.30;99.90
22698;DHT22;11516;51.612;7.510;2023-05-27T06:25:44;11.30;99.90
22698;DHT22;11516;51.612;7.510;2023-05-27T06:28:10;11.40;99.90
22698;DHT22;11516;51.612;7.510;2023-05-27T06:30:36;11.50;99.90
22698;DHT22;11516;51.612;7.510;2023-05-27T06:33:02;11.60;99.90
22698;DHT22;11516;51.612;7.510;2023-05-27T06:35:28;11.60;99.90
22698;DHT22;11516;51.612;7.510;2023-05-27T06:37:54;11.70;99.90
22698;DHT22;11516;51.612;7.510;2023-05-27T06:40:20;11.80;99.90
22698;DHT22;11516;51.612;7.510;2023-05-27T06:42:45;11.80;99.90
22698;DHT22;11516;51.612;7.510;2023-05-27T06:45:11;12.00;99.90
22698;DHT22;11516;51.612;7.510;2023-05-27T06:47:37;12.10;99.90
22698;DHT22;11516;51.612;7.510;2023-05-27T06:50:03;12.10;99.90
22698;DHT22;11516;51.612;7.510;2023-05-27T06:52:29;12.10;99.90
22698;DHT22;11516;51.612;7.510;2023-05-27T06:54:54;12.30;99.90
22698;DHT22;11516;51.612;7.510;2023-05-27T06:57:20;12.40;99.90
22698;DHT22;11516;51.612;7.510;2023-05-27T06:59:45;12.40;99.90
22698;DHT22;11516;51.612;7.510;2023-05-27T07:02:11;12.70;99.90
22698;DHT22;11516;51.612;7.510;2023-05-27T07:04:36;12.80;99.90
22698;DHT22;11516;51.612;7.510;2023-05-27T07:07:02;12.70;99.90
22698;DHT22;11516;51.612;7.510;2023-05-27T07:09:28;12.80;99.90
22698;DHT22;11516;51.612;7.510;2023-05-27T07:11:54;12.90;99.90
22698;DHT22;11516;51.612;7.510;2023-05-27T07:14:19;12.90;99.90
22698;DHT22;11516;51.612;7.510;2023-05-27T07:16:45;13.00;99.90
22698;DHT22;11516;51.612;7.510;2023-05-27T07:19:11;13.10;99.90
22698;DHT22;11516;51.612;7.510;2023-05-27T07:21:36;13.20;99.90
22698;DHT22;11516;51.612;7.510;2023-05-27T07:24:02;13.20;99.90
22698;DHT22;11516;51.612;7.510;2023-05-27T07:26:31;13.30;99.90
22698;DHT22;11516;51.612;7.510;2023-05-27T07:28:58;13.20;99.90
22698;DHT22;11516;51.612;7.510;2023-05-27T07:31:24;13.40;99.90
22698;DHT22;11516;51.612;7.510;2023-05-27T07:33:50;13.40;99.90
22698;DHT22;11516;51.612;7.510;2023-05-27T07:36:15;13.50;99.90
22698;DHT22;11516;51.612;7.510;2023-05-27T07:38:41;13.50;99.90
22698;DHT22;11516;51.612;7.510;2023-05-27T07:41:06;13.60;99.90
22698;DHT22;11516;51.612;7.510;2023-05-27T07:43:32;13.50;99.90
22698;DHT22;11516;51.612;7.510;2023-05-27T07:45:57;13.60;99.90
22698;DHT22;11516;51.612;7.510;2023-05-27T07:48:23;13.90;99.90
22698;DHT22;11516;51.612;7.510;2023-05-27T07:50:48;14.00;99.90
22698;DHT22;11516;51.612;7.510;2023-05-27T07:53:14;14.00;99.90
22698;DHT22;11516;51.612;7.510;2023-05-27T07:55:39;14.10;99.90
22698;DHT22;11516;51.612;7.510;2023-05-27T07:58:05;14.10;99.90
22698;DHT22;11516;51.612;7.510;2023-05-27T08:00:30;14.20;99.90
22698;DHT22;11516;51.612;7.510;2023-05-27T08:02:56;14.40;99.90
22698;DHT22;11516;51.612;7.510;2023-05-27T08:05:22;14.50;99.90
22698;DHT22;11516;51.612;7.510;2023-05-27T08:07:48;14.60;99.90
22698;DHT22;11516;51.612;7.510;2023-05-27T08:10:13;14.70;99.90
22698;DHT22;11516;51.612;7.510;2023-05-27T08:12:39;14.70;99.90
22698;DHT22;11516;51.612;7.510;2023-05-27T08:15:05;14.90;99.90
22698;DHT22;11516;51.612;7.510;2023-05-27T08:17:31;14.80;99.90
22698;DHT22;11516;51.612;7.510;2023-05-27T08:19:56;14.90;99.90
22698;DHT22;11516;51.612;7.510;2023-05-27T08:22:22;15.00;99.90
22698;DHT22;11516;51.612;7.510;2023-05-27T08:24:47;15.10;99.90
22698;DHT22;11516;51.612;7.510;2023-05-27T08:27:15;15.30;99.90
22698;DHT22;11516;51.612;7.510;2023-05-27T08:29:41;15.40;99.90
22698;DHT22;11516;51.612;7.510;2023-05-27T08:32:07;15.40;99.90
22698;DHT22;11516;51.612;7.510;2023-05-27T08:34:33;15.50;99.90
22698;DHT22;11516;51.612;7.510;2023-05-27T08:36:58;15.70;99.90
22698;DHT22;11516;51.612;7.510;2023-05-27T08:39:25;15.60;99.90
22698;DHT22;11516;51.612;7.510;2023-05-27T08:41:52;15.60;99.90
22698;DHT22;11516;51.612;7.510;2023-05-27T08:44:21;15.70;99.90
22698;DHT22;11516;51.612;7.510;2023-05-27T08:46:50;15.80;99.90
22698;DHT22;11516;51.612;7.510;2023-05-27T08:49:19;15.80;99.90
22698;DHT22;11516;51.612;7.510;2023-05-27T08:51:45;16.00;99.90
22698;DHT22;11516;51.612;7.510;2023-05-27T08:54:11;16.00;99.90
22698;DHT22;11516;51.612;7.510;2023-05-27T08:56:37;16.10;99.90
22698;DHT22;11516;51.612;7.510;2023-05-27T08:59:04;16.20;99.90
22698;DHT22;11516;51.612;7.510;2023-05-27T09:01:30;16.40;99.90
22698;DHT22;11516;51.612;7.510;2023-05-27T09:03:57;16.40;99.90
22698;DHT22;11516;51.612;7.510;2023-05-27T09:06:22;16.40;99.90
22698;DHT22;11516;51.612;7.510;2023-05-27T09:08:48;16.50;99.90
22698;DHT22;11516;51.612;7.510;2023-05-27T09:11:24;16.60;99.90
22698;DHT22;11516;51.612;7.510;2023-05-27T09:13:55;16.80;99.90
22698;DHT22;11516;51.612;7.510;2023-05-27T09:16:22;16.80;99.90
22698;DHT22;11516;51.612;7.510;2023-05-27T09:18:48;16.90;99.90
22698;DHT22;11516;51.612;7.510;2023-05-27T09:21:14;16.90;99.90
22698;DHT22;11516;51.612;7.510;2023-05-27T09:23:40;17.00;99.90
22698;DHT22;11516;51.612;7.510;2023-05-27T09:26:09;17.00;99.90
22698;DHT22;11516;51.612;7.510;2023-05-27T09:28:36;16.80;99.90
22698;DHT22;11516;51.612;7.510;2023-05-27T09:31:04;17.00;99.90
22698;DHT22;11516;51.612;7.510;2023-05-27T09:33:32;17.00;99.90
22698;DHT22;11516;51.612;7.510;2023-05-27T09:36:02;17.20;99.90
22698;DHT22;11516;51.612;7.510;2023-05-27T09:38:29;17.40;99.90
22698;DHT22;11516;51.612;7.510;2023-05-27T09:40:56;17.40;99.90
22698;DHT22;11516;51.612;7.510;2023-05-27T09:43:22;17.20;99.90
22698;DHT22;11516;51.612;7.510;2023-05-27T09:45:48;17.00;99.90
22698;DHT22;11516;51.612;7.510;2023-05-27T09:48:18;17.10;99.90
22698;DHT22;11516;51.612;7.510;2023-05-27T09:50:46;17.20;99.90
22698;DHT22;11516;51.612;7.510;2023-05-27T09:53:13;17.40;99.90
22698;DHT22;11516;51.612;7.510;2023-05-27T09:55:43;17.30;99.90
22698;DHT22;11516;51.612;7.510;2023-05-27T09:58:09;17.50;99.90
22698;DHT22;11516;51.612;7.510;2023-05-27T10:00:37;17.50;99.90
22698;DHT22;11516;51.612;7.510;2023-05-27T10:03:05;17.70;99.90
22698;DHT22;11516;51.612;7.510;2023-05-27T10:05:31;17.80;99.90
22698;DHT22;11516;51.612;7.510;2023-05-27T10:07:58;17.90;99.90
22698;DHT22;11516;51.612;7.510;2023-05-27T10:10:24;18.00;99.90
22698;DHT22;11516;51.612;7.510;2023-05-27T10:12:50;18.20;99.90
22698;DHT22;11516;51.612;7.510;2023-05-27T10:15:24;18.10;99.90
22698;DHT22;11516;51.612;7.510;2023-05-27T10:17:54;18.20;99.90
22698;DHT22;11516;51.612;7.510;2023-05-27T10:20:42;18.40;99.90
22698;DHT22;11516;51.612;7.510;2023-05-27T10:23:12;18.40;99.90
22698;DHT22;11516;51.612;7.510;2023-05-27T10:25:40;18.70;99.90
22698;DHT22;11516;51.612;7.510;2023-05-27T10:28:06;18.80;99.90
22698;DHT22;11516;51.612;7.510;2023-05-27T10:30:43;18.80;99.90
22698;DHT22;11516;51.612;7.510;2023-05-27T10:33:10;19.00;99.90
22698;DHT22;11516;51.612;7.510;2023-05-27T10:35:40;19.10;99.90
22698;DHT22;11516;51.612;7.510;2023-05-27T10:38:16;19.30;99.90
22698;DHT22;11516;51.612;7.510;2023-05-27T10:40:43;19.40;99.90
22698;DHT22;11516;51.612;7.510;2023-05-27T10:43:16;19.20;99.90
22698;DHT22;11516;51.612;7.510;2023-05-27T10:45:42;19.20;99.90
22698;DHT22;11516;51.612;7.510;2023-05-27T10:48:21;19.20;99.90
22698;DHT22;11516;51.612;7.510;2023-05-27T10:50:56;19.50;99.90
22698;DHT22;11516;51.612;7.510;2023-05-27T10:53:22;19.80;99.90
22698;DHT22;11516;51.612;7.510;2023-05-27T10:55:48;20.30;99.90
22698;DHT22;11516;51.612;7.510;2023-05-27T10:58:16;21.30;99.90
22698;DHT22;11516;51.612;7.510;2023-05-27T11:00:42;22.20;99.90
22698;DHT22;11516;51.612;7.510;2023-05-27T11:03:26;22.80;97.70
22698;DHT22;11516;51.612;7.510;2023-05-27T11:06:06;23.50;95.60
22698;DHT22;11516;51.612;7.510;2023-05-27T11:08:32;23.70;91.60
22698;DHT22;11516;51.612;7.510;2023-05-27T11:11:06;23.70;91.30
22698;DHT22;11516;51.612;7.510;2023-05-27T11:13:36;23.90;90.00
22698;DHT22;11516;51.612;7.510;2023-05-27T11:16:03;23.70;89.20
22698;DHT22;11516;51.612;7.510;2023-05-27T11:18:45;24.10;86.80
22698;DHT22;11516;51.612;7.510;2023-05-27T11:21:12;23.80;85.80
22698;DHT22;11516;51.612;7.510;2023-05-27T11:23:42;23.50;85.90
22698;DHT22;11516;51.612;7.510;2023-05-27T11:26:20;23.50;88.40
22698;DHT22;11516;51.612;7.510;2023-05-27T11:28:48;24.50;88.80
22698;DHT22;11516;51.612;7.510;2023-05-27T11:31:14;25.30;80.60
22698;DHT22;11516;51.612;7.510;2023-05-27T11:33:41;25.20;79.60
22698;DHT22;11516;51.612;7.510;2023-05-27T11:36:11;25.70;83.10
22698;DHT22;11516;51.612;7.510;2023-05-27T11:38:57;25.50;78.70
22698;DHT22;11516;51.612;7.510;2023-05-27T11:41:25;25.20;79.90
22698;DHT22;11516;51.612;7.510;2023-05-27T11:43:59;25.40;79.40
22698;DHT22;11516;51.612;7.510;2023-05-27T11:46:35;25.00;81.30
22698;DHT22;11516;51.612;7.510;2023-05-27T11:49:02;24.90;78.30
22698;DHT22;11516;51.612;7.510;2023-05-27T11:51:29;24.70;79.40
22698;DHT22;11516;51.612;7.510;2023-05-27T11:53:55;24.80;77.80
22698;DHT22;11516;51.612;7.510;2023-05-27T11:56:21;24.90;78.50
22698;DHT22;11516;51.612;7.510;2023-05-27T11:58:47;24.70;78.50
22698;DHT22;11516;51.612;7.510;2023-05-27T12:01:12;24.80;79.70
22698;DHT22;11516;51.612;7.510;2023-05-27T12:03:38;24.60;80.10
22698;DHT22;11516;51.612;7.510;2023-05-27T12:06:04;24.70;77.30
22698;DHT22;11516;51.612;7.510;2023-05-27T12:08:29;24.20;79.30
22698;DHT22;11516;51.612;7.510;2023-05-27T12:10:55;23.80;80.30
22698;DHT22;11516;51.612;7.510;2023-05-27T12:13:21;24.00;81.70
22698;DHT22;11516;51.612;7.510;2023-05-27T12:15:47;24.60;80.30
22698;DHT22;11516;51.612;7.510;2023-05-27T12:18:13;24.80;79.40
22698;DHT22;11516;51.612;7.510;2023-05-27T12:20:39;25.10;77.30
22698;DHT22;11516;51.612;7.510;2023-05-27T12:23:04;25.20;77.70
22698;DHT22;11516;51.612;7.510;2023-05-27T12:25:30;25.40;74.50
22698;DHT22;11516;51.612;7.510;2023-05-27T12:27:56;25.10;76.00
22698;DHT22;11516;51.612;7.510;2023-05-27T12:30:22;25.50;75.30
22698;DHT22;11516;51.612;7.510;2023-05-27T12:32:47;25.50;75.60
22698;DHT22;11516;51.612;7.510;2023-05-27T12:35:13;25.50;76.40
22698;DHT22;11516;51.612;7.510;2023-05-27T12:37:38;26.00;75.90
22698;DHT22;11516;51.612;7.510;2023-05-27T12:40:04;26.00;75.00
22698;DHT22;11516;51.612;7.510;2023-05-27T12:42:30;25.70;74.70
22698;DHT22;11516;51.612;7.510;2023-05-27T12:44:58;25.30;74.30
22698;DHT22;11516;51.612;7.510;2023-05-27T12:47:23;24.70;75.80
22698;DHT22;11516;51.612;7.510;2023-05-27T12:49:49;24.90;75.60
22698;DHT22;11516;51.612;7.510;2023-05-27T12:52:14;24.40;77.40
22698;DHT22;11516;51.612;7.510;2023-05-27T12:54:40;24.30;78.50
22698;DHT22;11516;51.612;7.510;2023-05-27T12:57:05;24.80;76.00
22698;DHT22;11516;51.612;7.510;2023-05-27T12:59:31;24.70;73.90
22698;DHT22;11516;51.612;7.510;2023-05-27T13:01:58;24.50;76.40
22698;DHT22;11516;51.612;7.510;2023-05-27T13:04:24;24.70;76.00
22698;DHT22;11516;51.612;7.510;2023-05-27T13:06:49;24.90;74.60
22698;DHT22;11516;51.612;7.510;2023-05-27T13:09:15;25.20;74.90
22698;DHT22;11516;51.612;7.510;2023-05-27T13:11:41;25.30;73.30
22698;DHT22;11516;51.612;7.510;2023-05-27T13:14:07;25.20;75.80
22698;DHT22;11516;51.612;7.510;2023-05-27T13:16:32;25.50;75.60
22698;DHT22;11516;51.612;7.510;2023-05-27T13:18:58;25.40;74.00
22698;DHT22;11516;51.612;7.510;2023-05-27T13:21:24;25.60;71.30
22698;DHT22;11516;51.612;7.510;2023-05-27T13:23:49;25.60;71.90
22698;DHT22;11516;51.612;7.510;2023-05-27T13:26:15;26.10;73.20
22698;DHT22;11516;51.612;7.510;2023-05-27T13:28:40;26.50;68.10
22698;DHT22;11516;51.612;7.510;2023-05-27T13:31:07;26.40;69.60
22698;DHT22;11516;51.612;7.510;2023-05-27T13:33:33;26.30;69.90
22698;DHT22;11516;51.612;7.510;2023-05-27T13:35:58;26.40;69.70
22698;DHT22;11516;51.612;7.510;2023-05-27T13:38:24;26.20;72.20
22698;DHT22;11516;51.612;7.510;2023-05-27T13:40:49;26.60;70.70
22698;DHT22;11516;51.612;7.510;2023-05-27T13:43:16;26.80;69.80
22698;DHT22;11516;51.612;7.510;2023-05-27T13:45:42;27.00;67.30
22698;DHT22;11516;51.612;7.510;2023-05-27T13:48:07;26.70;68.80
22698;DHT22;11516;51.612;7.510;2023-05-27T13:50:34;26.40;68.00
22698;DHT22;11516;51.612;7.510;2023-05-27T13:53:00;26.50;66.40
22698;DHT22;11516;51.612;7.510;2023-05-27T13:55:26;26.30;67.60
22698;DHT22;11516;51.612;7.510;2023-05-27T13:57:52;26.70;67.20
22698;DHT22;11516;51.612;7.510;2023-05-27T14:00:17;27.10;67.70
22698;DHT22;11516;51.612;7.510;2023-05-27T14:02:43;27.10;65.10
22698;DHT22;11516;51.612;7.510;2023-05-27T14:05:10;26.90;63.20
22698;DHT22;11516;51.612;7.510;2023-05-27T14:07:40;26.50;63.30
22698;DHT22;11516;51.612;7.510;2023-05-27T14:10:07;25.50;65.60
22698;DHT22;11516;51.612;7.510;2023-05-27T14:12:32;25.50;65.40
22698;DHT22;11516;51.612;7.510;2023-05-27T14:14:58;25.40;66.70
22698;DHT22;11516;51.612;7.510;2023-05-27T14:17:23;25.90;66.90
22698;DHT22;11516;51.612;7.510;2023-05-27T14:19:49;26.00;66.30
22698;DHT22;11516;51.612;7.510;2023-05-27T14:22:15;26.40;66.30
22698;DHT22;11516;51.612;7.510;2023-05-27T14:24:40;26.40;64.60
22698;DHT22;11516;51.612;7.510;2023-05-27T14:27:06;26.20;65.70
22698;DHT22;11516;51.612;7.510;2023-05-27T14:29:32;26.60;62.70
22698;DHT22;11516;51.612;7.510;2023-05-27T14:31:58;26.50;61.30
22698;DHT22;11516;51.612;7.510;2023-05-27T14:34:23;26.50;62.50
22698;DHT22;11516;51.612;7.510;2023-05-27T14:36:49;26.80;63.00
22698;DHT22;11516;51.612;7.510;2023-05-27T14:39:15;27.40;63.90
22698;DHT22;11516;51.612;7.510;2023-05-27T14:41:41;27.70;64.50
22698;DHT22;11516;51.612;7.510;2023-05-27T14:44:06;27.50;62.30
22698;DHT22;11516;51.612;7.510;2023-05-27T14:46:32;27.00;64.80
22698;DHT22;11516;51.612;7.510;2023-05-27T14:48:57;26.90;64.20
22698;DHT22;11516;51.612;7.510;2023-05-27T14:51:23;27.50;63.00
22698;DHT22;11516;51.612;7.510;2023-05-27T14:53:48;27.70;64.10
22698;DHT22;11516;51.612;7.510;2023-05-27T14:56:14;27.60;62.00
22698;DHT22;11516;51.612;7.510;2023-05-27T14:58:40;27.30;62.30
22698;DHT22;11516;51.612;7.510;2023-05-27T15:01:06;27.30;62.90
22698;DHT22;11516;51.612;7.510;2023-05-27T15:03:31;26.70;62.90
22698;DHT22;11516;51.612;7.510;2023-05-27T15:05:57;26.30;62.80
22698;DHT22;11516;51.612;7.510;2023-05-27T15:08:24;26.50;63.50
22698;DHT22;11516;51.612;7.510;2023-05-27T15:10:50;26.70;62.30
22698;DHT22;11516;51.612;7.510;2023-05-27T15:13:16;26.50;63.40
22698;DHT22;11516;51.612;7.510;2023-05-27T15:15:41;26.80;61.30
22698;DHT22;11516;51.612;7.510;2023-05-27T15:18:09;26.60;61.40
22698;DHT22;11516;51.612;7.510;2023-05-27T15:20:35;26.30;62.80
22698;DHT22;11516;51.612;7.510;2023-05-27T15:23:00;26.90;61.70
22698;DHT22;11516;51.612;7.510;2023-05-27T15:25:26;27.00;61.30
22698;DHT22;11516;51.612;7.510;2023-05-27T15:27:51;27.30;60.70
22698;DHT22;11516;51.612;7.510;2023-05-27T15:30:17;26.90;59.90
22698;DHT22;11516;51.612;7.510;2023-05-27T15:32:44;26.30;60.90
22698;DHT22;11516;51.612;7.510;2023-05-27T15:35:11;25.90;61.70